LESA/SLM METAR and TAF weather

Enter ICAO airport designator
Station Type Date Time Source
LESA METAR 2019/08/22 04:30 UTC NOAA

LESA 220430Z AUTO 04003KT 010V070 9999 NCD 13/10 Q1022


Station Type Date Time Source
LESA Decoded METAR 2019/08/22 04:30 UTC NOAA

Station name not available
Aug 22, 2019 - 12:30 AM EDT / 2019.08.22 0430 UTC
Wind: from the NE (040 degrees) at 3 MPH (3 KT) (direction variable):0
Visibility: greater than 7 mile(s):0
Temperature: 55 F (13 C)
Dew Point: 50 F (10 C)
Relative Humidity: 81%
Pressure (altimeter): 30.18 in. Hg (1022 hPa)
ob: LESA 220430Z AUTO 04003KT 010V070 9999 NCD 13/10 Q1022
cycle: 4

Station Type Date Time Source
LESA TAF 2019/08/21 18:27 UTC NOAA

TAF LESA 211700Z 2118/2218 VRB05KT 9999 FEW035 TX31/2216Z TN12/2206Z PROB40
TEMPO 2118/2119 VRB20G30KT 3000 TS SHRA SCT040CB
TEMPO 2118/2121 FEW035TCU
BECMG 2207/2209 05010KT

Example: see airport list